Time;durP1;ratioP1;P1;durP2;ratioP2;P2;SDS_P1;SDS_P2;PMS_P1;PMS_P2;Temp;Humidity;BMP_temperature;BMP_pressure;BME280_temperature;BME280_humidity;BME280_pressure;Samples;Min_cycle;Max_cycle;Signal;HPM_P1;HPM_P2
2023/06/12 00:01:24;;;;;;;1.80;1.70;;;25.10;57.00;;;;;;5052489;28;20045;-67
2023/06/12 00:03:51;;;;;;;1.90;1.80;;;25.10;57.00;;;;;;5052739;28;20115;-66
2023/06/12 00:06:18;;;;;;;1.80;1.70;;;25.00;56.90;;;;;;5051609;28;20049;-67
2023/06/12 00:08:46;;;;;;;1.85;1.27;;;25.00;57.00;;;;;;5052923;28;20095;-66
2023/06/12 00:11:13;;;;;;;2.05;1.95;;;25.10;57.10;;;;;;5052786;28;20049;-66
2023/06/12 00:13:45;;;;;;;1.55;1.45;;;25.10;57.10;;;;;;5052804;28;20060;-67
2023/06/12 00:16:12;;;;;;;2.03;1.92;;;25.00;57.00;;;;;;5052387;28;20103;-66
2023/06/12 00:18:40;;;;;;;1.63;1.52;;;25.00;57.00;;;;;;5052923;28;20048;-67
2023/06/12 00:21:08;;;;;;;1.80;1.70;;;25.00;57.00;;;;;;5051000;28;20513;-67
2023/06/12 00:23:37;;;;;;;1.65;1.55;;;25.10;57.10;;;;;;5051420;28;20049;-67
2023/06/12 00:26:04;;;;;;;1.65;1.58;;;25.00;57.00;;;;;;5052636;28;20053;-67
2023/06/12 00:28:32;;;;;;;2.22;1.70;;;25.00;57.00;;;;;;5052228;28;20473;-67
2023/06/12 00:30:59;;;;;;;1.45;1.45;;;25.00;57.00;;;;;;5052321;28;20497;-67
2023/06/12 00:33:27;;;;;;;1.92;1.83;;;25.00;57.00;;;;;;5052361;28;20102;-67
2023/06/12 00:35:54;;;;;;;1.80;1.70;;;25.00;57.00;;;;;;5052789;28;20048;-67
2023/06/12 00:38:22;;;;;;;1.80;1.70;;;25.00;57.00;;;;;;5052837;28;20045;-67
2023/06/12 00:40:50;;;;;;;1.60;1.50;;;25.00;56.90;;;;;;5051047;28;20056;-67
2023/06/12 00:43:17;;;;;;;1.30;1.30;;;25.10;57.00;;;;;;5052234;28;20090;-67
2023/06/12 00:45:44;;;;;;;1.65;1.55;;;25.10;56.90;;;;;;5052464;28;20517;-67
2023/06/12 00:48:12;;;;;;;1.80;1.70;;;25.10;56.90;;;;;;5052619;28;20053;-67
2023/06/12 00:50:41;;;;;;;1.60;1.50;;;25.10;56.90;;;;;;5055389;28;20472;-67
2023/06/12 00:53:08;;;;;;;1.52;1.42;;;25.10;56.90;;;;;;5056299;28;20109;-67
2023/06/12 00:55:35;;;;;;;1.60;1.50;;;25.10;56.90;;;;;;5056278;28;20440;-67
2023/06/12 00:58:03;;;;;;;1.30;1.30;;;25.10;56.80;;;;;;5055927;28;20539;-67
2023/06/12 01:00:30;;;;;;;1.55;1.52;;;25.10;56.80;;;;;;5055829;28;20079;-67
2023/06/12 01:03:04;;;;;;;1.60;1.50;;;25.10;56.80;;;;;;5055542;28;20072;-67
2023/06/12 01:05:36;;;;;;;1.83;1.73;;;25.10;56.80;;;;;;5055723;28;20060;-67
2023/06/12 01:08:28;;;;;;;1.48;1.38;;;25.10;56.80;;;;;;5055750;28;20531;-67
2023/06/12 01:11:08;;;;;;;1.17;1.17;;;25.10;56.80;;;;;;5054431;28;20049;-67
2023/06/12 01:13:36;;;;;;;1.50;1.40;;;25.10;56.80;;;;;;5056106;28;20049;-67
2023/06/12 01:16:03;;;;;;;1.65;1.55;;;25.10;56.80;;;;;;5055552;28;20048;-67
2023/06/12 01:18:32;;;;;;;1.63;1.52;;;25.10;56.80;;;;;;5055203;28;20048;-67
2023/06/12 01:21:05;;;;;;;1.85;1.75;;;25.10;56.80;;;;;;5055347;28;20088;-67
2023/06/12 01:24:02;;;;;;;1.40;1.27;;;25.10;56.80;;;;;;5054880;28;20045;-67
2023/06/12 01:26:51;;;;;;;1.20;1.20;;;25.10;56.90;;;;;;5055303;28;20139;-67
2023/06/12 01:29:58;;;;;;;1.60;1.50;;;25.00;56.80;;;;;;5055560;28;20072;-67
2023/06/12 01:32:26;;;;;;;1.75;1.65;;;25.00;56.80;;;;;;5054592;28;20476;-67
2023/06/12 01:35:05;;;;;;;1.70;1.60;;;25.00;56.90;;;;;;5055271;28;20136;-67
2023/06/12 01:37:49;;;;;;;1.10;1.10;;;25.00;56.90;;;;;;5055110;28;20053;-67
2023/06/12 01:40:18;;;;;;;1.30;1.30;;;25.00;56.90;;;;;;5053763;28;20060;-67
2023/06/12 01:42:46;;;;;;;1.33;1.25;;;25.00;56.90;;;;;;5055111;28;20077;-67
2023/06/12 01:45:13;;;;;;;2.00;1.90;;;25.00;56.90;;;;;;5055123;28;20463;-67
2023/06/12 01:47:40;;;;;;;1.50;1.45;;;25.00;56.90;;;;;;5055085;28;20052;-67
2023/06/12 01:50:08;;;;;;;1.25;1.23;;;25.00;57.00;;;;;;5053869;28;20136;-67
2023/06/12 01:52:38;;;;;;;1.65;1.55;;;24.90;56.90;;;;;;5054825;28;20489;-67
2023/06/12 01:55:05;;;;;;;1.40;1.30;;;24.90;56.90;;;;;;5054851;28;20045;-67
2023/06/12 01:57:32;;;;;;;1.42;1.35;;;24.90;57.00;;;;;;5054860;28;20045;-68
2023/06/12 02:00:00;;;;;;;2.05;1.10;;;24.90;57.00;;;;;;5053075;28;20246;-67
2023/06/12 02:02:28;;;;;;;1.60;1.50;;;24.90;57.00;;;;;;5054263;28;20456;-66
2023/06/12 02:04:55;;;;;;;1.23;1.23;;;24.90;57.00;;;;;;5054479;28;20170;-67
2023/06/12 02:07:22;;;;;;;1.15;1.15;;;24.90;57.00;;;;;;5053726;28;20091;-67
2023/06/12 02:09:49;;;;;;;1.15;1.15;;;24.90;57.00;;;;;;5054740;28;20060;-67
2023/06/12 02:12:16;;;;;;;1.20;1.20;;;24.90;57.00;;;;;;5054068;28;20535;-67
2023/06/12 02:14:44;;;;;;;1.30;1.30;;;24.90;57.00;;;;;;5054861;28;20072;-67
2023/06/12 02:17:13;;;;;;;1.30;1.25;;;24.90;57.10;;;;;;5054396;28;20057;-67
2023/06/12 02:19:41;;;;;;;1.10;1.10;;;24.90;57.10;;;;;;5054751;28;20049;-67
2023/06/12 02:22:08;;;;;;;1.00;1.00;;;24.90;57.10;;;;;;5054398;28;20076;-67
2023/06/12 02:24:35;;;;;;;1.15;1.15;;;24.90;57.10;;;;;;5054363;28;20057;-67
2023/06/12 02:27:03;;;;;;;1.33;1.30;;;24.90;57.10;;;;;;5054265;28;20056;-67
2023/06/12 02:29:30;;;;;;;1.30;1.20;;;24.90;57.10;;;;;;5053642;28;20531;-67
2023/06/12 02:31:58;;;;;;;1.60;1.50;;;24.90;57.10;;;;;;5054230;28;20049;-66
2023/06/12 02:34:25;;;;;;;1.30;1.20;;;24.90;57.10;;;;;;5054234;28;20493;-67
2023/06/12 02:36:52;;;;;;;1.10;1.10;;;24.90;57.10;;;;;;5053957;28;20547;-67
2023/06/12 02:39:19;;;;;;;1.38;1.27;;;24.90;57.10;;;;;;5053967;28;20049;-67
2023/06/12 02:41:48;;;;;;;1.38;1.27;;;24.90;57.00;;;;;;5053708;28;20485;-67
2023/06/12 02:44:16;;;;;;;2.75;1.48;;;24.90;57.00;;;;;;5054171;28;20051;-67
2023/06/12 02:46:52;;;;;;;1.30;1.30;;;24.90;57.00;;;;;;5053608;28;20075;-67
2023/06/12 02:49:20;;;;;;;1.42;1.42;;;24.90;56.90;;;;;;5053478;28;20048;-67
2023/06/12 02:51:48;;;;;;;1.60;1.50;;;24.90;56.90;;;;;;5053462;28;20052;-67
2023/06/12 02:54:16;;;;;;;1.92;1.30;;;24.90;56.80;;;;;;5053873;28;20072;-67
2023/06/12 02:56:47;;;;;;;1.50;1.40;;;24.90;56.80;;;;;;5053353;28;20057;-67
2023/06/12 02:59:16;;;;;;;1.10;1.10;;;24.90;56.80;;;;;;5053751;28;20057;-67
2023/06/12 03:01:43;;;;;;;1.50;1.40;;;24.90;56.70;;;;;;5053179;28;20053;-67
2023/06/12 03:04:12;;;;;;;1.25;1.15;;;24.90;56.70;;;;;;5053225;28;20476;-67
2023/06/12 03:06:40;;;;;;;0.98;0.98;;;25.00;56.70;;;;;;5053449;28;20106;-67
2023/06/12 03:09:08;;;;;;;1.20;1.20;;;25.00;56.70;;;;;;5053177;28;20045;-67
2023/06/12 03:11:36;;;;;;;1.30;1.30;;;24.90;56.60;;;;;;5052912;28;20048;-67
2023/06/12 03:14:07;;;;;;;1.10;1.10;;;25.00;56.60;;;;;;5053452;28;20102;-67
2023/06/12 03:16:36;;;;;;;1.48;1.40;;;25.00;56.60;;;;;;5053333;28;20053;-67
2023/06/12 03:19:03;;;;;;;1.02;1.02;;;25.00;56.60;;;;;;5053404;28;20055;-67
2023/06/12 03:21:31;;;;;;;1.00;1.00;;;25.00;56.50;;;;;;5053041;28;20075;-67
2023/06/12 03:23:59;;;;;;;1.45;1.35;;;25.00;56.50;;;;;;5053466;28;20441;-67
2023/06/12 03:26:27;;;;;;;0.85;0.85;;;25.00;56.60;;;;;;5053492;28;20049;-67
2023/06/12 03:28:54;;;;;;;1.23;1.20;;;25.00;56.50;;;;;;5052794;28;20485;-67
2023/06/12 03:31:24;;;;;;;1.10;1.10;;;25.00;56.50;;;;;;5052566;28;20052;-67
2023/06/12 03:33:53;;;;;;;1.10;1.10;;;25.00;56.50;;;;;;5052518;28;20045;-67
2023/06/12 03:36:23;;;;;;;1.10;1.00;;;25.00;56.40;;;;;;5051589;28;20052;-67
2023/06/12 03:38:50;;;;;;;1.20;1.20;;;25.00;56.40;;;;;;5053085;28;20056;-67
2023/06/12 03:41:22;;;;;;;1.27;1.13;;;25.00;56.40;;;;;;5051630;28;20086;-67
2023/06/12 03:43:49;;;;;;;1.20;1.20;;;25.00;56.40;;;;;;5053158;28;20110;-67
2023/06/12 03:46:16;;;;;;;1.10;1.10;;;25.10;56.40;;;;;;5053180;28;20421;-67
2023/06/12 03:48:44;;;;;;;1.13;1.13;;;25.00;56.30;;;;;;5052476;28;20128;-67
2023/06/12 03:51:11;;;;;;;1.00;1.00;;;25.00;56.30;;;;;;5053015;28;20110;-67
2023/06/12 03:53:39;;;;;;;1.30;1.20;;;25.10;56.30;;;;;;5050593;28;20045;-67
2023/06/12 03:56:07;;;;;;;0.90;0.90;;;25.10;56.20;;;;;;5052563;28;20049;-67
2023/06/12 03:58:34;;;;;;;0.90;0.90;;;25.10;56.20;;;;;;5051845;28;20045;-66
2023/06/12 04:01:02;;;;;;;0.93;0.93;;;25.10;56.20;;;;;;5053284;28;20077;-67
2023/06/12 04:03:29;;;;;;;1.00;1.00;;;25.10;56.20;;;;;;5052102;28;20049;-66
2023/06/12 04:05:56;;;;;;;1.13;1.02;;;25.10;56.20;;;;;;5047501;28;20489;-67
2023/06/12 04:08:24;;;;;;;1.10;1.10;;;25.10;56.10;;;;;;5050612;28;20056;-66
2023/06/12 04:10:51;;;;;;;0.80;0.80;;;25.10;56.10;;;;;;5080880;28;20045;-66
2023/06/12 04:13:18;;;;;;;1.50;1.20;;;25.10;56.00;;;;;;5049981;28;20409;-67
2023/06/12 04:15:47;;;;;;;1.23;1.20;;;25.20;56.00;;;;;;5051901;28;20091;-67
2023/06/12 04:18:14;;;;;;;1.02;1.02;;;25.20;56.00;;;;;;5045173;28;20049;-66
2023/06/12 04:20:41;;;;;;;1.10;1.10;;;25.20;55.90;;;;;;5052289;28;20114;-66
2023/06/12 04:23:11;;;;;;;1.73;1.10;;;25.20;55.90;;;;;;5048719;28;20045;-67
2023/06/12 04:25:43;;;;;;;1.40;1.30;;;25.20;56.40;;;;;;5055141;28;20052;-67
2023/06/12 04:28:16;;;;;;;1.20;1.20;;;25.20;55.80;;;;;;5056784;28;20049;-67
2023/06/12 04:30:45;;;;;;;1.05;1.05;;;25.20;55.70;;;;;;5056428;28;20049;-66
2023/06/12 04:33:12;;;;;;;1.20;1.20;;;25.30;55.80;;;;;;5056576;28;20048;-67
2023/06/12 04:35:40;;;;;;;1.35;1.25;;;25.30;55.70;;;;;;5055437;28;20049;-67
2023/06/12 04:38:08;;;;;;;1.00;1.00;;;25.20;55.60;;;;;;5071277;28;20424;-67
2023/06/12 04:40:36;;;;;;;1.40;1.30;;;25.10;55.50;;;;;;5056063;28;20045;-67
2023/06/12 04:43:06;;;;;;;1.33;1.27;;;25.00;55.50;;;;;;5055936;28;20449;-67
2023/06/12 04:45:34;;;;;;;1.42;1.33;;;24.80;55.60;;;;;;5056155;28;20131;-67
2023/06/12 04:48:02;;;;;;;1.20;1.20;;;24.60;55.40;;;;;;5055994;28;20460;-67
2023/06/12 04:50:30;;;;;;;1.02;1.02;;;24.30;54.70;;;;;;5055845;28;20053;-67
2023/06/12 04:52:59;;;;;;;1.40;1.40;;;23.90;54.20;;;;;;5055659;28;20094;-67
2023/06/12 04:55:28;;;;;;;1.30;1.30;;;23.60;53.80;;;;;;5055106;28;20376;-66
2023/06/12 04:57:57;;;;;;;1.10;1.10;;;23.30;54.00;;;;;;5054994;28;20455;-66
2023/06/12 05:00:25;;;;;;;1.58;1.48;;;22.90;54.10;;;;;;5051228;28;20044;-64
2023/06/12 05:02:53;;;;;;;1.40;1.30;;;22.60;54.50;;;;;;5054532;28;20044;-66
2023/06/12 05:05:20;;;;;;;2.88;1.40;;;22.30;55.50;;;;;;5054394;28;20053;-67
2023/06/12 05:07:48;;;;;;;1.60;1.50;;;22.10;55.90;;;;;;5053789;28;20045;-67
2023/06/12 05:10:15;;;;;;;1.58;1.52;;;21.80;55.70;;;;;;5054308;28;20052;-70
2023/06/12 05:12:43;;;;;;;1.83;1.40;;;21.60;56.50;;;;;;5054983;28;20048;-75
2023/06/12 05:15:10;;;;;;;1.50;1.40;;;21.40;57.10;;;;;;5054029;28;20067;-73
2023/06/12 05:17:38;;;;;;;2.00;1.90;;;21.30;56.80;;;;;;5052422;28;20048;-77
2023/06/12 05:20:09;;;;;;;2.10;2.00;;;21.20;56.50;;;;;;5049159;28;20040;-76
2023/06/12 05:22:37;;;;;;;2.58;1.90;;;21.10;57.10;;;;;;5047626;28;20375;-75
2023/06/12 05:25:06;;;;;;;5.18;1.98;;;20.90;56.50;;;;;;5047672;28;20049;-77
2023/06/12 05:27:33;;;;;;;1.90;1.75;;;20.80;55.70;;;;;;5046548;28;20106;-72
2023/06/12 05:30:00;;;;;;;5.13;2.45;;;20.70;55.90;;;;;;5048917;28;20059;-75
2023/06/12 05:32:27;;;;;;;3.60;2.03;;;20.60;56.30;;;;;;5044176;28;20569;-73
2023/06/12 05:34:55;;;;;;;3.95;2.08;;;20.50;55.80;;;;;;5045505;28;20406;-77
2023/06/12 05:37:22;;;;;;;4.60;1.98;;;20.30;56.10;;;;;;5046962;28;20072;-77
2023/06/12 05:39:49;;;;;;;2.83;2.00;;;20.20;57.30;;;;;;5046398;28;20049;-76
2023/06/12 05:42:17;;;;;;;3.45;2.05;;;20.20;57.80;;;;;;5047440;28;20686;-76
2023/06/12 05:44:46;;;;;;;1.90;1.80;;;20.10;56.30;;;;;;5049181;28;20037;-78
2023/06/12 05:47:13;;;;;;;1.98;1.88;;;20.00;56.60;;;;;;5042860;28;20527;-79
2023/06/12 05:49:41;;;;;;;3.15;2.20;;;19.90;57.50;;;;;;5044177;28;20049;-78
2023/06/12 05:52:11;;;;;;;6.20;2.85;;;19.90;57.70;;;;;;5046007;28;20056;-78
2023/06/12 05:54:38;;;;;;;2.45;2.05;;;19.80;56.10;;;;;;5047893;28;20515;-76
2023/06/12 05:57:05;;;;;;;2.67;2.45;;;19.70;56.60;;;;;;5041179;28;20044;-78
2023/06/12 05:59:33;;;;;;;1.85;1.65;;;19.60;58.60;;;;;;5045562;28;20643;-76
2023/06/12 06:02:00;;;;;;;2.20;2.03;;;19.60;57.90;;;;;;5044687;28;20095;-73
2023/06/12 06:04:28;;;;;;;3.97;2.08;;;19.60;56.80;;;;;;5048415;28;20045;-74
2023/06/12 06:06:55;;;;;;;6.18;2.30;;;19.60;56.10;;;;;;5042955;28;20453;-73
2023/06/12 06:09:23;;;;;;;2.05;1.95;;;19.50;57.20;;;;;;5046884;28;20052;-72
2023/06/12 06:11:50;;;;;;;3.90;2.00;;;19.40;57.90;;;;;;5046587;28;20045;-71
2023/06/12 06:14:19;;;;;;;2.78;2.08;;;19.50;57.30;;;;;;5061810;28;20444;-71
2023/06/12 06:16:46;;;;;;;2.17;1.98;;;19.40;56.70;;;;;;5047935;28;20090;-74
2023/06/12 06:19:22;;;;;;;2.20;2.00;;;19.40;58.00;;;;;;5048301;28;21699;-77
2023/06/12 06:21:50;;;;;;;4.15;1.80;;;19.30;58.30;;;;;;5027964;28;20055;-74
2023/06/12 06:24:17;;;;;;;2.67;2.00;;;19.30;57.80;;;;;;5044052;28;20457;-75
2023/06/12 06:26:44;;;;;;;4.57;1.80;;;19.40;57.60;;;;;;5044089;28;20705;-72
2023/06/12 06:29:12;;;;;;;6.38;2.25;;;19.40;58.70;;;;;;5046809;28;20460;-75
2023/06/12 06:31:41;;;;;;;5.47;2.13;;;19.40;58.60;;;;;;5049526;28;20082;-73
2023/06/12 06:34:11;;;;;;;2.35;1.77;;;19.40;58.40;;;;;;5044864;28;20049;-73
2023/06/12 06:36:38;;;;;;;7.53;2.60;;;19.40;58.60;;;;;;5044999;28;20044;-73
2023/06/12 06:39:05;;;;;;;7.25;2.10;;;19.40;58.60;;;;;;5042203;28;20056;-74
2023/06/12 06:41:32;;;;;;;3.03;2.53;;;19.50;58.20;;;;;;5044105;28;20053;-71
2023/06/12 06:44:00;;;;;;;3.45;1.83;;;19.40;58.30;;;;;;5040965;28;20056;-73
2023/06/12 06:46:28;;;;;;;4.00;2.50;;;19.50;59.10;;;;;;5040409;28;20394;-72
2023/06/12 06:48:55;;;;;;;1.77;1.58;;;19.50;58.00;;;;;;5043587;28;20498;-70
2023/06/12 06:51:22;;;;;;;3.70;1.67;;;19.40;57.00;;;;;;5041154;28;20048;-73
2023/06/12 06:53:50;;;;;;;4.32;1.58;;;19.40;57.90;;;;;;5037733;28;20060;-72
2023/06/12 06:56:17;;;;;;;5.97;1.83;;;19.40;57.60;;;;;;5037381;28;20076;-74
2023/06/12 06:58:44;;;;;;;2.28;1.60;;;19.30;56.60;;;;;;5041630;28;20048;-72
2023/06/12 07:01:11;;;;;;;2.65;2.20;;;19.20;57.50;;;;;;5043476;28;20170;-75
2023/06/12 07:03:39;;;;;;;2.78;2.50;;;19.20;58.30;;;;;;5042251;28;20497;-74
2023/06/12 07:06:07;;;;;;;2.05;1.83;;;19.20;58.00;;;;;;5045061;28;20550;-71
2023/06/12 07:08:35;;;;;;;2.13;1.92;;;19.10;57.80;;;;;;5045138;28;20049;-67
2023/06/12 07:11:03;;;;;;;2.50;2.13;;;19.10;58.50;;;;;;5043076;28;20111;-75
2023/06/12 07:13:31;;;;;;;1.55;1.48;;;19.10;59.40;;;;;;5047737;28;20051;-70
2023/06/12 07:15:58;;;;;;;1.77;1.58;;;19.00;58.20;;;;;;5027382;28;20559;-72
2023/06/12 07:18:28;;;;;;;3.20;1.85;;;19.00;58.80;;;;;;5044170;28;20049;-74
2023/06/12 07:20:55;;;;;;;2.88;1.92;;;19.00;59.30;;;;;;5040877;28;20191;-73
2023/06/12 07:23:23;;;;;;;2.47;1.75;;;19.00;58.10;;;;;;5070628;28;20479;-72
2023/06/12 07:25:50;;;;;;;2.70;1.80;;;19.00;58.50;;;;;;5056029;28;20060;-73
2023/06/12 07:28:17;;;;;;;6.55;1.95;;;19.00;59.30;;;;;;5044156;28;20041;-75
2023/06/12 07:30:45;;;;;;;2.38;1.70;;;18.90;59.00;;;;;;5047199;28;20052;-73
2023/06/12 07:33:14;;;;;;;1.98;1.80;;;18.90;58.30;;;;;;5044100;28;20080;-75
2023/06/12 07:35:42;;;;;;;1.70;1.57;;;18.80;59.20;;;;;;5042287;28;20049;-73
2023/06/12 07:38:09;;;;;;;2.20;1.73;;;18.80;59.80;;;;;;5045681;28;20045;-75
2023/06/12 07:40:37;;;;;;;2.88;1.50;;;18.80;58.60;;;;;;5044938;28;20136;-73
2023/06/12 07:43:05;;;;;;;2.58;1.95;;;18.80;59.20;;;;;;5047757;28;20090;-74
2023/06/12 07:45:35;;;;;;;3.67;2.20;;;18.70;60.10;;;;;;5041994;28;20080;-75
2023/06/12 07:48:02;;;;;;;2.15;1.80;;;18.80;59.70;;;;;;5042948;28;20045;-74
2023/06/12 07:50:29;;;;;;;4.82;2.00;;;18.80;59.60;;;;;;5041200;28;20056;-73
2023/06/12 07:52:57;;;;;;;2.70;1.77;;;18.80;60.60;;;;;;5043965;28;20520;-76
2023/06/12 07:55:24;;;;;;;2.47;2.28;;;18.80;60.70;;;;;;5048714;28;20090;-75
2023/06/12 07:57:52;;;;;;;4.50;2.10;;;18.90;59.10;;;;;;5042774;28;20060;-74
2023/06/12 08:00:20;;;;;;;3.42;2.20;;;18.90;60.00;;;;;;5047434;28;20119;-74
2023/06/12 08:02:57;;;;;;;2.85;2.20;;;18.90;60.40;;;;;;5044704;28;20061;-74
2023/06/12 08:05:25;;;;;;;5.75;2.10;;;18.90;60.10;;;;;;5046115;28;20056;-76
2023/06/12 08:07:54;;;;;;;5.20;2.15;;;18.90;59.70;;;;;;5046209;28;20057;-73
2023/06/12 08:10:21;;;;;;;2.88;1.83;;;18.90;59.90;;;;;;5047483;28;20041;-75
2023/06/12 08:12:48;;;;;;;4.47;1.73;;;18.90;59.80;;;;;;5048006;28;20057;-74
2023/06/12 08:15:16;;;;;;;4.38;1.90;;;19.00;58.80;;;;;;5049017;28;20045;-76
2023/06/12 08:17:43;;;;;;;6.88;1.95;;;19.00;59.00;;;;;;5051014;28;20049;-74
2023/06/12 08:20:11;;;;;;;3.58;1.67;;;19.00;60.00;;;;;;5053704;28;20056;-74
2023/06/12 08:22:38;;;;;;;15.23;2.15;;;19.00;59.70;;;;;;5047713;28;20057;-72
2023/06/12 08:25:07;;;;;;;3.55;1.83;;;18.90;59.70;;;;;;5049500;28;20124;-74
2023/06/12 08:27:34;;;;;;;1.80;1.70;;;19.00;60.40;;;;;;5056235;28;20497;-78
2023/06/12 08:30:06;;;;;;;4.72;2.00;;;19.00;59.70;;;;;;5048329;28;20053;-73
2023/06/12 08:32:36;;;;;;;1.75;1.60;;;19.10;59.40;;;;;;5048372;28;20108;-73
2023/06/12 08:35:04;;;;;;;2.83;1.73;;;19.00;59.60;;;;;;5026539;28;20106;-75
2023/06/12 08:37:32;;;;;;;3.75;1.85;;;19.00;60.10;;;;;;5047028;28;20053;-72
2023/06/12 08:40:01;;;;;;;2.25;1.90;;;19.10;59.60;;;;;;5046403;28;20512;-75
2023/06/12 08:42:28;;;;;;;2.47;1.90;;;19.10;59.20;;;;;;5050095;28;20045;-75
2023/06/12 08:45:03;;;;;;;5.57;2.28;;;19.10;59.40;;;;;;5050646;28;20131;-73
2023/06/12 08:47:49;;;;;;;5.03;1.67;;;19.10;60.10;;;;;;5052381;28;20056;-75
2023/06/12 08:50:18;;;;;;;3.60;1.63;;;19.10;59.70;;;;;;5043582;28;20060;-74
2023/06/12 08:52:51;;;;;;;1.55;1.45;;;19.10;59.40;;;;;;5047501;28;20043;-75
2023/06/12 08:55:21;;;;;;;1.60;1.50;;;19.10;59.80;;;;;;5044472;28;20457;-74
2023/06/12 08:57:48;;;;;;;2.90;1.73;;;19.20;59.90;;;;;;5042251;28;20493;-72
2023/06/12 09:00:16;;;;;;;2.78;1.77;;;19.30;59.20;;;;;;5041961;28;20086;-76
2023/06/12 09:02:52;;;;;;;3.28;1.73;;;19.20;58.60;;;;;;5055932;28;20113;-76
2023/06/12 09:05:27;;;;;;;2.40;2.20;;;19.20;59.40;;;;;;5050207;28;20056;-75
2023/06/12 09:07:56;;;;;;;3.50;1.75;;;19.20;59.10;;;;;;5049832;28;20044;-75
2023/06/12 09:10:25;;;;;;;3.00;2.10;;;19.20;59.10;;;;;;5045539;28;20076;-72
2023/06/12 09:12:56;;;;;;;4.53;1.48;;;19.20;60.00;;;;;;5047700;28;20048;-63
2023/06/12 09:15:24;;;;;;;6.70;1.90;;;19.20;60.00;;;;;;5050368;28;20105;-62
2023/06/12 09:17:53;;;;;;;4.47;1.63;;;19.40;58.90;;;;;;5049240;28;20060;-61
2023/06/12 09:20:33;;;;;;;3.35;2.00;;;19.50;58.40;;;;;;5050311;28;20232;-63
2023/06/12 09:23:04;;;;;;;1.92;1.63;;;19.60;58.30;;;;;;5046030;28;20089;-63
2023/06/12 09:25:37;;;;;;;3.88;1.83;;;19.60;57.30;;;;;;5049280;28;20479;-62
2023/06/12 09:28:04;;;;;;;2.90;1.80;;;19.70;57.20;;;;;;5047618;28;20416;-61
2023/06/12 09:30:33;;;;;;;2.45;1.58;;;19.70;57.70;;;;;;5044431;28;20200;-62
2023/06/12 09:33:01;;;;;;;4.95;2.25;;;19.70;57.40;;;;;;5057823;28;20044;-62
2023/06/12 09:35:28;;;;;;;3.25;1.40;;;19.70;57.30;;;;;;5049179;28;20049;-63
2023/06/12 09:38:00;;;;;;;1.92;1.83;;;19.80;57.40;;;;;;5050824;28;20554;-63
2023/06/12 09:40:27;;;;;;;2.95;2.20;;;19.80;57.50;;;;;;5048691;28;20567;-62
2023/06/12 09:42:54;;;;;;;1.65;1.55;;;19.80;57.20;;;;;;5044931;28;20049;-64
2023/06/12 09:45:23;;;;;;;2.63;2.08;;;19.80;57.50;;;;;;5046554;28;20068;-62
2023/06/12 09:47:52;;;;;;;3.78;1.75;;;19.80;57.50;;;;;;5046206;28;20449;-64
2023/06/12 09:50:21;;;;;;;2.72;1.63;;;19.80;57.40;;;;;;5051521;28;20080;-62
2023/06/12 09:52:49;;;;;;;1.75;1.65;;;19.80;57.30;;;;;;5047524;28;20386;-64
2023/06/12 09:55:18;;;;;;;5.00;1.70;;;19.80;57.60;;;;;;5046691;28;20103;-62
2023/06/12 09:57:49;;;;;;;6.18;2.70;;;19.90;57.20;;;;;;5048179;28;20118;-63
2023/06/12 10:00:19;;;;;;;3.75;2.08;;;19.90;56.60;;;;;;5049047;28;20052;-62
2023/06/12 10:02:53;;;;;;;3.83;1.30;;;19.90;57.10;;;;;;5047423;28;20045;-60
2023/06/12 10:05:24;;;;;;;2.53;2.30;;;19.90;57.50;;;;;;5048537;28;20139;-62
2023/06/12 10:07:55;;;;;;;2.65;1.85;;;19.90;56.60;;;;;;5048937;28;20045;-64
2023/06/12 10:10:23;;;;;;;1.88;1.60;;;19.90;56.70;;;;;;5047881;28;20045;-62
2023/06/12 10:12:51;;;;;;;3.92;2.15;;;19.90;56.60;;;;;;5047087;28;20045;-62
2023/06/12 10:15:20;;;;;;;4.55;2.00;;;19.90;56.30;;;;;;5047871;28;20078;-62
2023/06/12 10:17:50;;;;;;;4.55;2.00;;;19.80;56.20;;;;;;5049339;28;20524;-63
2023/06/12 10:20:19;;;;;;;2.28;1.70;;;19.80;56.20;;;;;;5046179;28;20451;-63
2023/06/12 10:22:47;;;;;;;3.22;1.75;;;19.80;56.00;;;;;;5048870;28;20067;-63
2023/06/12 10:25:16;;;;;;;2.50;1.73;;;19.80;56.20;;;;;;5045225;28;20420;-63
2023/06/12 10:27:43;;;;;;;1.58;1.48;;;19.70;56.70;;;;;;5044477;28;20048;-63
2023/06/12 10:30:12;;;;;;;2.67;1.70;;;19.70;56.70;;;;;;5045326;28;20053;-62
2023/06/12 10:32:44;;;;;;;1.40;1.30;;;19.70;56.30;;;;;;5038562;28;20088;-62
2023/06/12 10:35:12;;;;;;;1.67;1.58;;;19.70;56.50;;;;;;5048744;28;20041;-62
2023/06/12 10:37:47;;;;;;;3.22;2.05;;;19.70;57.10;;;;;;5042979;28;20371;-62
2023/06/12 10:40:22;;;;;;;3.40;1.63;;;19.80;56.40;;;;;;5043025;28;20052;-62
2023/06/12 10:43:04;;;;;;;1.63;1.40;;;19.80;56.20;;;;;;5048037;28;20099;-64
2023/06/12 10:45:34;;;;;;;2.88;1.52;;;19.80;56.60;;;;;;5050974;28;20049;-63
2023/06/12 10:48:17;;;;;;;4.45;1.65;;;19.80;56.50;;;;;;5040260;28;20059;-63
2023/06/12 10:50:50;;;;;;;4.55;1.70;;;19.90;56.70;;;;;;5042111;28;20053;-62
2023/06/12 10:53:29;;;;;;;2.08;1.23;;;19.90;56.40;;;;;;5046666;28;20386;-62
2023/06/12 10:56:05;;;;;;;1.38;1.27;;;19.90;56.90;;;;;;5045017;28;20515;-62
2023/06/12 10:58:38;;;;;;;2.83;2.00;;;19.90;56.00;;;;;;5044685;28;20509;-62
2023/06/12 11:01:12;;;;;;;4.07;1.77;;;19.90;56.10;;;;;;5059167;28;20049;-63
2023/06/12 11:03:44;;;;;;;3.08;1.48;;;19.90;56.50;;;;;;5041635;28;20049;-62
2023/06/12 11:06:15;;;;;;;1.35;1.15;;;19.90;56.40;;;;;;5043680;28;20057;-62
2023/06/12 11:08:46;;;;;;;6.60;1.40;;;19.90;56.20;;;;;;5047773;28;20136;-62
2023/06/12 11:11:16;;;;;;;1.70;1.60;;;19.90;56.50;;;;;;5043710;28;20107;-63
2023/06/12 11:13:48;;;;;;;2.63;1.30;;;20.00;56.60;;;;;;5045075;28;20515;-62
2023/06/12 11:16:17;;;;;;;1.90;1.42;;;20.00;55.80;;;;;;5048691;28;20068;-63
2023/06/12 11:18:44;;;;;;;4.10;1.40;;;20.00;55.70;;;;;;5046032;28;20107;-64
2023/06/12 11:21:11;;;;;;;1.50;1.33;;;20.00;56.10;;;;;;5041084;28;20056;-63
2023/06/12 11:23:43;;;;;;;1.90;1.75;;;20.00;56.20;;;;;;5044361;28;20114;-63
2023/06/12 11:26:10;;;;;;;1.30;1.20;;;20.10;55.80;;;;;;5045332;28;20431;-62
2023/06/12 11:28:37;;;;;;;1.42;1.33;;;20.00;55.70;;;;;;5046669;28;20045;-63
2023/06/12 11:31:07;;;;;;;2.03;1.85;;;20.10;55.80;;;;;;5040900;28;20500;-62
2023/06/12 11:33:39;;;;;;;2.25;1.67;;;20.10;55.80;;;;;;5046115;28;20503;-61
2023/06/12 11:36:07;;;;;;;5.63;1.90;;;20.20;55.90;;;;;;5042757;28;20505;-61
2023/06/12 11:38:35;;;;;;;2.72;1.50;;;20.20;56.10;;;;;;5048224;28;20549;-61
2023/06/12 11:41:10;;;;;;;2.58;1.92;;;20.20;55.60;;;;;;5043131;28;20063;-61
2023/06/12 11:43:37;;;;;;;1.73;1.35;;;20.30;55.80;;;;;;5044214;28;20037;-61
2023/06/12 11:46:05;;;;;;;2.22;1.52;;;20.30;56.00;;;;;;5047289;28;20049;-62
2023/06/12 11:48:33;;;;;;;2.15;1.60;;;20.30;55.40;;;;;;5044477;28;20044;-62
2023/06/12 11:51:04;;;;;;;2.65;1.42;;;20.30;55.70;;;;;;5050160;28;20394;-62
2023/06/12 11:53:32;;;;;;;3.53;1.80;;;20.30;56.10;;;;;;5046911;28;20045;-62
2023/06/12 11:56:04;;;;;;;3.05;1.45;;;20.30;55.60;;;;;;5044993;28;20056;-62
2023/06/12 11:58:36;;;;;;;1.30;1.20;;;20.30;55.90;;;;;;5045194;28;20124;-62
2023/06/12 12:01:12;;;;;;;2.40;1.27;;;20.40;56.70;;;;;;5037560;28;20106;-63
2023/06/12 12:03:44;;;;;;;2.38;1.88;;;20.40;56.10;;;;;;5052547;28;20048;-62
2023/06/12 12:06:13;;;;;;;2.10;1.60;;;20.40;55.80;;;;;;5046959;28;21407;-62
2023/06/12 12:08:40;;;;;;;1.75;1.40;;;20.40;55.70;;;;;;5046643;28;20068;-62
2023/06/12 12:11:19;;;;;;;3.05;1.80;;;20.50;56.10;;;;;;5044231;28;20060;-62
2023/06/12 12:13:53;;;;;;;4.60;1.55;;;20.50;55.50;;;;;;5045044;28;20053;-62
2023/06/12 12:16:23;;;;;;;2.17;1.90;;;20.50;55.40;;;;;;5043381;28;20726;-62
2023/06/12 12:18:51;;;;;;;1.95;1.42;;;20.50;55.80;;;;;;5044039;28;20049;-61
2023/06/12 12:21:19;;;;;;;2.85;1.90;;;20.60;55.80;;;;;;5041912;28;20107;-64
2023/06/12 12:23:46;;;;;;;1.88;1.77;;;20.60;55.70;;;;;;5043017;28;20099;-62
2023/06/12 12:26:14;;;;;;;2.13;1.83;;;20.60;55.70;;;;;;5046727;28;20048;-63
2023/06/12 12:28:42;;;;;;;1.58;1.35;;;20.60;55.80;;;;;;5042065;28;20052;-62
2023/06/12 12:31:09;;;;;;;4.40;1.70;;;20.70;55.80;;;;;;5044392;28;20532;-62
2023/06/12 12:33:36;;;;;;;2.22;1.55;;;20.70;55.90;;;;;;5042424;28;20041;-62
2023/06/12 12:36:04;;;;;;;1.75;1.55;;;20.80;55.70;;;;;;5042436;28;20048;-62
2023/06/12 12:38:31;;;;;;;3.33;1.45;;;20.80;55.50;;;;;;5041685;28;20049;-62
2023/06/12 12:40:59;;;;;;;1.58;1.48;;;20.90;55.40;;;;;;5044619;28;20136;-63
2023/06/12 12:43:26;;;;;;;1.77;1.58;;;20.90;55.50;;;;;;5037527;28;20054;-62
2023/06/12 12:45:53;;;;;;;2.67;1.90;;;20.90;55.40;;;;;;5044292;28;20061;-63
2023/06/12 12:48:20;;;;;;;1.90;1.80;;;20.90;55.30;;;;;;5049455;28;20496;-62
2023/06/12 12:50:48;;;;;;;3.25;1.60;;;20.90;55.50;;;;;;5046561;28;20055;-61
2023/06/12 12:53:35;;;;;;;1.80;1.45;;;20.90;55.30;;;;;;5058824;28;20045;-61
2023/06/12 12:56:03;;;;;;;5.32;1.67;;;20.90;55.20;;;;;;5045167;28;20052;-62
2023/06/12 12:58:33;;;;;;;2.10;1.60;;;20.90;55.10;;;;;;5053551;28;20053;-62